Delilah — FV5464 — position and weather

sailwx.info

Track history (hours):
 
Tides and Currents Weather Stations Pressure Air Temp Water Temp Dewpoint Dewpoint Depression Visibility Wind Speed Wind Dir Waves Ship Positions

Delilah

Last reported at 2017-Sep-22 01:59 UTC. Time now 2017-Sep-22 08:27 UTC.
Position S 32°39' E 152°17'.

Length 23 m.

Type: Fishing. MMSI: 503056720.

Date/timePositionNaut miles runAvg speedWind from/ knotsBaromVisibWave heightAir tempDewpointWater temp
2017-Sep-22 01:59S 32°39' E 152°17'0 0.0
2017-Sep-22 01:29S 32°39' E 152°17'0 0.0
2017-Sep-22 00:59S 32°39' E 152°17'0 0.0
2017-Sep-22 00:29S 32°39' E 152°17'0 0.0
2017-Sep-21 23:59S 32°39' E 152°17'0 0.0
2017-Sep-21 23:29S 32°39' E 152°17'0 0.0
2017-Sep-21 22:59S 32°39' E 152°17'0 0.0
2017-Sep-21 22:29S 32°39' E 152°17'0 0.5
2017-Sep-21 22:00S 32°39' E 152°17'3 6.5
2017-Sep-21 21:30S 32°42' E 152°14'3 6.4
2017-Sep-21 21:00S 32°42' E 152°10'2 3.2
2017-Sep-21 20:29S 32°43' E 152°09'0 0.0
2017-Sep-21 06:13S 32°43' E 152°09'1 4.1
2017-Sep-21 06:00S 32°43' E 152°09'4 7.7
2017-Sep-21 05:30S 32°41' E 152°14'3 6.6
2017-Sep-21 05:00S 32°39' E 152°17'0 0.5
2017-Sep-21 04:30S 32°39' E 152°17'0 0.1
2017-Sep-21 04:00S 32°39' E 152°17'0 0.0
2017-Sep-21 03:28S 32°39' E 152°17'0 0.5
2017-Sep-21 03:00S 32°39' E 152°17'0 0.0
2017-Sep-21 02:29S 32°39' E 152°17'0 0.1
2017-Sep-21 02:00S 32°39' E 152°17'0 0.1
2017-Sep-21 01:30S 32°39' E 152°17'0 0.3
2017-Sep-21 01:00S 32°39' E 152°17'0 0.2
2017-Sep-21 00:30S 32°39' E 152°17'0 0.1
2017-Sep-21 00:00S 32°39' E 152°17'0 0.0
2017-Sep-20 23:29S 32°39' E 152°17'0 0.1
2017-Sep-20 23:00S 32°39' E 152°17'0 0.2
2017-Sep-20 22:30S 32°39' E 152°17'0 0.3
2017-Sep-20 22:00S 32°39' E 152°17'2 3.5
2017-Sep-20 21:30S 32°40' E 152°15'4 7.4
2017-Sep-20 21:00S 32°42' E 152°12'3 5.2
2017-Sep-20 20:28S 32°43' E 152°09'0 0.0
2017-Sep-20 19:58S 32°43' E 152°09'0 0.0
2017-Sep-20 05:57S 32°43' E 152°09'0 0.0
2017-Sep-20 05:30S 32°43' E 152°09'3 5.8
2017-Sep-20 05:00S 32°42' E 152°12'4 7.4
2017-Sep-20 04:30S 32°40' E 152°15'2 3.4
2017-Sep-20 04:01S 32°39' E 152°17'0 0.0
2017-Sep-20 03:30S 32°39' E 152°17'0 0.1
2017-Sep-20 03:00S 32°39' E 152°17'0 0.1
2017-Sep-20 02:29S 32°39' E 152°17'0 0.0
2017-Sep-20 02:00S 32°39' E 152°17'0 0.7
2017-Sep-20 01:30S 32°39' E 152°17'0 0.5
2017-Sep-20 01:00S 32°39' E 152°17'0 0.2
2017-Sep-20 00:30S 32°39' E 152°17'0 0.1
2017-Sep-20 00:00S 32°39' E 152°17'0 0.2
2017-Sep-19 23:30S 32°39' E 152°17'3 5.0
2017-Sep-19 22:59S 32°41' E 152°15'3 6.5
2017-Sep-19 22:30S 32°42' E 152°11'2 4.7
2017-Sep-19 22:00S 32°43' E 152°09'0 0.0
2017-Sep-19 00:45S 32°43' E 152°09'0 0.0
2017-Sep-19 00:27S 32°43' E 152°09'0 0.0
2017-Sep-18 15:15S 32°43' E 152°09'1 2.4
2017-Sep-18 15:00S 32°43' E 152°09'3 5.4
2017-Sep-18 14:30S 32°43' E 152°12'3 5.9
2017-Sep-18 14:00S 32°46' E 152°12'3 7.0
2017-Sep-18 13:30S 32°48' E 152°08'3 6.8
2017-Sep-18 13:00S 32°49' E 152°04'3 7.0
2017-Sep-18 12:30S 32°51' E 152°01'3 0.2
2017-Sep-17 23:48S 32°52' E 151°57'2 7.7
2017-Sep-17 23:30S 32°51' E 152°00'4 7.6
2017-Sep-17 23:00S 32°49' E 152°04'4 8.0
2017-Sep-17 22:30S 32°47' E 152°08'4 8.1
2017-Sep-17 22:00S 32°45' E 152°13'3 6.6
2017-Sep-17 21:30S 32°42' E 152°11'2 4.3
2017-Sep-17 20:58S 32°43' E 152°09'0 0.0
2017-Sep-16 06:34S 32°43' E 152°09'0 0.3
2017-Sep-16 06:30S 32°43' E 152°09'3 6.4
2017-Sep-16 06:00S 32°42' E 152°12'4 8.2
2017-Sep-16 05:30S 32°40' E 152°16'1 2.1
2017-Sep-16 05:00S 32°39' E 152°17'0 0.1
2017-Sep-16 04:30S 32°39' E 152°17'0 0.0
2017-Sep-16 04:00S 32°39' E 152°17'0 0.0
2017-Sep-16 03:30S 32°39' E 152°17'0 0.0
2017-Sep-16 03:00S 32°39' E 152°17'0 0.2
2017-Sep-16 02:28S 32°39' E 152°17'0 0.1
2017-Sep-16 02:00S 32°39' E 152°17'0 0.1
2017-Sep-16 01:28S 32°39' E 152°17'0 0.0
2017-Sep-16 00:58S 32°39' E 152°17'0 0.3
2017-Sep-16 00:30S 32°39' E 152°17'0 0.2
2017-Sep-15 23:58S 32°39' E 152°17'0 0.0
2017-Sep-15 23:30S 32°39' E 152°17'0 0.1
2017-Sep-15 22:56S 32°39' E 152°17'0 0.1
2017-Sep-15 22:29S 32°39' E 152°17'0 0.4
2017-Sep-15 22:00S 32°39' E 152°17'3 5.5
2017-Sep-15 21:30S 32°41' E 152°15'3 5.8
2017-Sep-15 21:00S 32°42' E 152°11'2 4.8
2017-Sep-15 20:30S 32°43' E 152°09'0 0.0
2017-Sep-14 05:14S 32°43' E 152°09'0 0.0
2017-Sep-14 04:59S 32°43' E 152°09'0 0.0
2017-Sep-14 04:29S 32°43' E 152°09'0 0.0
2017-Sep-14 03:49S 32°43' E 152°09'0 0.0
2017-Sep-14 03:31S 32°43' E 152°09'0 0.0
2017-Sep-14 03:01S 32°43' E 152°09'0 0.0
2017-Sep-14 02:31S 32°43' E 152°09'0 0.0
2017-Sep-14 02:01S 32°43' E 152°09'0 0.0
2017-Sep-14 01:31S 32°43' E 152°09'0 0.0
2017-Sep-14 01:01S 32°43' E 152°09'0 0.0
2017-Sep-14 00:31S 32°43' E 152°09'0 0.0
2017-Sep-13 06:26S 32°43' E 152°09'0 0.8
2017-Sep-13 06:00S 32°43' E 152°09'3 5.9
2017-Sep-13 05:30S 32°42' E 152°12'4 6.9
2017-Sep-13 04:59S 32°40' E 152°16'1 2.7
2017-Sep-13 04:28S 32°39' E 152°17'0 0.0
2017-Sep-13 03:58S 32°39' E 152°17'0 0.0
2017-Sep-13 03:28S 32°39' E 152°17'0 0.0
2017-Sep-13 02:58S 32°39' E 152°17'0 0.0
2017-Sep-13 02:28S 32°39' E 152°17'0 0.0
2017-Sep-13 01:58S 32°39' E 152°17'0 0.0
2017-Sep-13 01:28S 32°39' E 152°17'0 0.1
2017-Sep-13 00:58S 32°39' E 152°17'0 0.0
2017-Sep-13 00:28S 32°39' E 152°17'0 0.0
2017-Sep-12 23:58S 32°39' E 152°17'0 0.0
2017-Sep-12 23:28S 32°39' E 152°17'0 0.0
2017-Sep-12 22:58S 32°39' E 152°17'0 0.0
2017-Sep-12 22:28S 32°39' E 152°17'1 2.2
2017-Sep-12 22:00S 32°40' E 152°16'4 7.6
2017-Sep-12 21:30S 32°42' E 152°13'3 6.4
2017-Sep-12 20:58S 32°43' E 152°09'0 0.0
2017-Sep-12 20:28S 32°43' E 152°09'0 0.0
2017-Sep-12 19:58S 32°43' E 152°09'0 0.0
2017-Sep-12 12:07S 32°43' E 152°09'0 0.0
2017-Sep-12 11:58S 32°43' E 152°09'0 0.0
2017-Sep-12 11:28S 32°43' E 152°09'0 0.0
2017-Sep-12 10:58S 32°43' E 152°09'0 0.0
2017-Sep-12 10:28S 32°43' E 152°09'0 0.0
2017-Sep-12 09:58S 32°43' E 152°09'0 0.0
2017-Sep-12 09:28S 32°43' E 152°09'0 0.0
2017-Sep-12 08:58S 32°43' E 152°09'0 0.0
2017-Sep-12 06:57S 32°43' E 152°09'2 5.1
2017-Sep-12 06:30S 32°42' E 152°11'3 6.2
2017-Sep-12 06:00S 32°41' E 152°15'3 5.6
2017-Sep-12 05:29S 32°39' E 152°17'0 0.0
2017-Sep-12 04:59S 32°39' E 152°17'0 0.0
2017-Sep-12 04:29S 32°39' E 152°17'0 0.0
2017-Sep-12 03:59S 32°39' E 152°17'0 0.2
2017-Sep-12 03:29S 32°39' E 152°17'0 0.0
2017-Sep-12 02:56S 32°39' E 152°17'0 0.0
2017-Sep-12 02:29S 32°39' E 152°17'0 0.0
2017-Sep-12 01:59S 32°39' E 152°17'  
Track history (hours):
 
Tides and Currents Weather Stations Pressure Air Temp Water Temp Dewpoint Dewpoint Depression Visibility Wind Speed Wind Dir Waves Ship Positions

Delilah

Last reported at 2017-Sep-22 01:59 UTC. Time now 2017-Sep-22 08:27 UTC.
Position S 32°39' E 152°17'.

Length 23 m.

Type: Fishing. MMSI: 503056720.

Date/timePositionNaut miles runAvg speedWind from/ knotsBaromVisibWave heightAir tempDewpointWater temp
2017-Sep-22 01:59S 32°39' E 152°17'0 0.0
2017-Sep-22 01:29S 32°39' E 152°17'0 0.0
2017-Sep-22 00:59S 32°39' E 152°17'0 0.0
2017-Sep-22 00:29S 32°39' E 152°17'0 0.0
2017-Sep-21 23:59S 32°39' E 152°17'0 0.0
2017-Sep-21 23:29S 32°39' E 152°17'0 0.0
2017-Sep-21 22:59S 32°39' E 152°17'0 0.0
2017-Sep-21 22:29S 32°39' E 152°17'0 0.5
2017-Sep-21 22:00S 32°39' E 152°17'3 6.5
2017-Sep-21 21:30S 32°42' E 152°14'3 6.4
2017-Sep-21 21:00S 32°42' E 152°10'2 3.2
2017-Sep-21 20:29S 32°43' E 152°09'0 0.0
2017-Sep-21 06:13S 32°43' E 152°09'1 4.1
2017-Sep-21 06:00S 32°43' E 152°09'4 7.7
2017-Sep-21 05:30S 32°41' E 152°14'3 6.6
2017-Sep-21 05:00S 32°39' E 152°17'0 0.5
2017-Sep-21 04:30S 32°39' E 152°17'0 0.1
2017-Sep-21 04:00S 32°39' E 152°17'0 0.0
2017-Sep-21 03:28S 32°39' E 152°17'0 0.5
2017-Sep-21 03:00S 32°39' E 152°17'0 0.0
2017-Sep-21 02:29S 32°39' E 152°17'0 0.1
2017-Sep-21 02:00S 32°39' E 152°17'0 0.1
2017-Sep-21 01:30S 32°39' E 152°17'0 0.3
2017-Sep-21 01:00S 32°39' E 152°17'0 0.2
2017-Sep-21 00:30S 32°39' E 152°17'0 0.1
2017-Sep-21 00:00S 32°39' E 152°17'0 0.0
2017-Sep-20 23:29S 32°39' E 152°17'0 0.1
2017-Sep-20 23:00S 32°39' E 152°17'0 0.2
2017-Sep-20 22:30S 32°39' E 152°17'0 0.3
2017-Sep-20 22:00S 32°39' E 152°17'2 3.5
2017-Sep-20 21:30S 32°40' E 152°15'4 7.4
2017-Sep-20 21:00S 32°42' E 152°12'3 5.2
2017-Sep-20 20:28S 32°43' E 152°09'0 0.0
2017-Sep-20 19:58S 32°43' E 152°09'0 0.0
2017-Sep-20 05:57S 32°43' E 152°09'0 0.0
2017-Sep-20 05:30S 32°43' E 152°09'3 5.8
2017-Sep-20 05:00S 32°42' E 152°12'4 7.4
2017-Sep-20 04:30S 32°40' E 152°15'2 3.4
2017-Sep-20 04:01S 32°39' E 152°17'0 0.0
2017-Sep-20 03:30S 32°39' E 152°17'0 0.1
2017-Sep-20 03:00S 32°39' E 152°17'0 0.1
2017-Sep-20 02:29S 32°39' E 152°17'0 0.0
2017-Sep-20 02:00S 32°39' E 152°17'0 0.7
2017-Sep-20 01:30S 32°39' E 152°17'0 0.5
2017-Sep-20 01:00S 32°39' E 152°17'0 0.2
2017-Sep-20 00:30S 32°39' E 152°17'0 0.1
2017-Sep-20 00:00S 32°39' E 152°17'0 0.2
2017-Sep-19 23:30S 32°39' E 152°17'3 5.0
2017-Sep-19 22:59S 32°41' E 152°15'3 6.5
2017-Sep-19 22:30S 32°42' E 152°11'2 4.7
2017-Sep-19 22:00S 32°43' E 152°09'0 0.0
2017-Sep-19 00:45S 32°43' E 152°09'0 0.0
2017-Sep-19 00:27S 32°43' E 152°09'0 0.0
2017-Sep-18 15:15S 32°43' E 152°09'1 2.4
2017-Sep-18 15:00S 32°43' E 152°09'3 5.4
2017-Sep-18 14:30S 32°43' E 152°12'3 5.9
2017-Sep-18 14:00S 32°46' E 152°12'3 7.0
2017-Sep-18 13:30S 32°48' E 152°08'3 6.8
2017-Sep-18 13:00S 32°49' E 152°04'3 7.0
2017-Sep-18 12:30S 32°51' E 152°01'3 0.2
2017-Sep-17 23:48S 32°52' E 151°57'2 7.7
2017-Sep-17 23:30S 32°51' E 152°00'4 7.6
2017-Sep-17 23:00S 32°49' E 152°04'4 8.0
2017-Sep-17 22:30S 32°47' E 152°08'4 8.1
2017-Sep-17 22:00S 32°45' E 152°13'3 6.6
2017-Sep-17 21:30S 32°42' E 152°11'2 4.3
2017-Sep-17 20:58S 32°43' E 152°09'0 0.0
2017-Sep-16 06:34S 32°43' E 152°09'0 0.3
2017-Sep-16 06:30S 32°43' E 152°09'3 6.4
2017-Sep-16 06:00S 32°42' E 152°12'4 8.2
2017-Sep-16 05:30S 32°40' E 152°16'1 2.1
2017-Sep-16 05:00S 32°39' E 152°17'0 0.1
2017-Sep-16 04:30S 32°39' E 152°17'0 0.0
2017-Sep-16 04:00S 32°39' E 152°17'0 0.0
2017-Sep-16 03:30S 32°39' E 152°17'0 0.0
2017-Sep-16 03:00S 32°39' E 152°17'0 0.2
2017-Sep-16 02:28S 32°39' E 152°17'0 0.1
2017-Sep-16 02:00S 32°39' E 152°17'0 0.1
2017-Sep-16 01:28S 32°39' E 152°17'0 0.0
2017-Sep-16 00:58S 32°39' E 152°17'0 0.3
2017-Sep-16 00:30S 32°39' E 152°17'0 0.2
2017-Sep-15 23:58S 32°39' E 152°17'0 0.0
2017-Sep-15 23:30S 32°39' E 152°17'0 0.1
2017-Sep-15 22:56S 32°39' E 152°17'0 0.1
2017-Sep-15 22:29S 32°39' E 152°17'0 0.4
2017-Sep-15 22:00S 32°39' E 152°17'3 5.5
2017-Sep-15 21:30S 32°41' E 152°15'3 5.8
2017-Sep-15 21:00S 32°42' E 152°11'2 4.8
2017-Sep-15 20:30S 32°43' E 152°09'0 0.0
2017-Sep-14 05:14S 32°43' E 152°09'0 0.0
2017-Sep-14 04:59S 32°43' E 152°09'0 0.0
2017-Sep-14 04:29S 32°43' E 152°09'0 0.0
2017-Sep-14 03:49S 32°43' E 152°09'0 0.0
2017-Sep-14 03:31S 32°43' E 152°09'0 0.0
2017-Sep-14 03:01S 32°43' E 152°09'0 0.0
2017-Sep-14 02:31S 32°43' E 152°09'0 0.0
2017-Sep-14 02:01S 32°43' E 152°09'0 0.0
2017-Sep-14 01:31S 32°43' E 152°09'0 0.0
2017-Sep-14 01:01S 32°43' E 152°09'0 0.0
2017-Sep-14 00:31S 32°43' E 152°09'0 0.0
2017-Sep-13 06:26S 32°43' E 152°09'0 0.8
2017-Sep-13 06:00S 32°43' E 152°09'3 5.9
2017-Sep-13 05:30S 32°42' E 152°12'4 6.9
2017-Sep-13 04:59S 32°40' E 152°16'1 2.7
2017-Sep-13 04:28S 32°39' E 152°17'0 0.0
2017-Sep-13 03:58S 32°39' E 152°17'0 0.0
2017-Sep-13 03:28S 32°39' E 152°17'0 0.0
2017-Sep-13 02:58S 32°39' E 152°17'0 0.0
2017-Sep-13 02:28S 32°39' E 152°17'0 0.0
2017-Sep-13 01:58S 32°39' E 152°17'0 0.0
2017-Sep-13 01:28S 32°39' E 152°17'0 0.1
2017-Sep-13 00:58S 32°39' E 152°17'0 0.0
2017-Sep-13 00:28S 32°39' E 152°17'0 0.0
2017-Sep-12 23:58S 32°39' E 152°17'0 0.0
2017-Sep-12 23:28S 32°39' E 152°17'0 0.0
2017-Sep-12 22:58S 32°39' E 152°17'0 0.0
2017-Sep-12 22:28S 32°39' E 152°17'1 2.2
2017-Sep-12 22:00S 32°40' E 152°16'4 7.6
2017-Sep-12 21:30S 32°42' E 152°13'3 6.4
2017-Sep-12 20:58S 32°43' E 152°09'0 0.0
2017-Sep-12 20:28S 32°43' E 152°09'0 0.0
2017-Sep-12 19:58S 32°43' E 152°09'0 0.0
2017-Sep-12 12:07S 32°43' E 152°09'0 0.0
2017-Sep-12 11:58S 32°43' E 152°09'0 0.0
2017-Sep-12 11:28S 32°43' E 152°09'0 0.0
2017-Sep-12 10:58S 32°43' E 152°09'0 0.0
2017-Sep-12 10:28S 32°43' E 152°09'0 0.0
2017-Sep-12 09:58S 32°43' E 152°09'0 0.0
2017-Sep-12 09:28S 32°43' E 152°09'0 0.0
2017-Sep-12 08:58S 32°43' E 152°09'0 0.0
2017-Sep-12 06:57S 32°43' E 152°09'2 5.1
2017-Sep-12 06:30S 32°42' E 152°11'3 6.2
2017-Sep-12 06:00S 32°41' E 152°15'3 5.6
2017-Sep-12 05:29S 32°39' E 152°17'0 0.0
2017-Sep-12 04:59S 32°39' E 152°17'0 0.0
2017-Sep-12 04:29S 32°39' E 152°17'0 0.0
2017-Sep-12 03:59S 32°39' E 152°17'0 0.2
2017-Sep-12 03:29S 32°39' E 152°17'0 0.0
2017-Sep-12 02:56S 32°39' E 152°17'0 0.0
2017-Sep-12 02:29S 32°39' E 152°17'0 0.0
2017-Sep-12 01:59S 32°39' E 152°17'  

Dump ship's entire track history